createdAt,value
2023-04-09T00:00:38.259Z,21.47
2023-04-09T00:03:06.406Z,20.20
2023-04-09T00:05:34.339Z,20.77
2023-04-09T00:08:02.314Z,22.23
2023-04-09T00:10:30.464Z,22.20
2023-04-09T00:12:59.634Z,22.10
2023-04-09T00:15:31.344Z,20.83
2023-04-09T00:17:59.855Z,21.97
2023-04-09T00:20:27.865Z,22.33
2023-04-09T00:22:56.428Z,22.07
2023-04-09T00:25:24.541Z,22.17
2023-04-09T00:27:52.509Z,21.03
2023-04-09T00:30:22.084Z,23.80
2023-04-09T00:32:50.491Z,23.30
2023-04-09T00:35:18.509Z,23.43
2023-04-09T00:37:46.370Z,21.53
2023-04-09T00:40:15.127Z,20.70
2023-04-09T00:42:43.213Z,22.53
2023-04-09T00:45:12.095Z,23.57
2023-04-09T00:47:43.109Z,22.27
2023-04-09T00:50:12.107Z,22.50
2023-04-09T00:52:40.357Z,22.20
2023-04-09T00:55:10.689Z,23.33
2023-04-09T00:57:38.570Z,21.40
2023-04-09T01:00:08.505Z,23.17
2023-04-09T01:02:36.625Z,22.80
2023-04-09T01:05:06.923Z,22.10
2023-04-09T01:07:47.708Z,23.30
2023-04-09T01:10:21.421Z,21.30
2023-04-09T01:12:59.226Z,21.30
2023-04-09T01:15:30.563Z,20.70
2023-04-09T01:18:06.370Z,21.50
2023-04-09T01:20:40.135Z,21.87
2023-04-09T01:23:17.504Z,21.07
2023-04-09T01:25:52.302Z,21.23
2023-04-09T01:28:26.745Z,20.60
2023-04-09T01:30:59.733Z,21.27
2023-04-09T01:33:30.224Z,21.47
2023-04-09T01:35:59.877Z,20.83
2023-04-09T01:38:28.734Z,20.90
2023-04-09T01:40:58.420Z,20.17
2023-04-09T01:43:28.783Z,19.73
2023-04-09T01:45:56.865Z,19.73
2023-04-09T01:48:25.370Z,20.07
2023-04-09T01:50:53.508Z,20.73
2023-04-09T01:53:22.485Z,20.17
2023-04-09T01:55:50.678Z,19.87
2023-04-09T01:58:18.480Z,21.37
2023-04-09T02:00:49.749Z,19.93
2023-04-09T02:03:22.815Z,20.63
2023-04-09T02:05:56.806Z,20.60
2023-04-09T02:08:26.255Z,19.70
2023-04-09T02:10:59.684Z,21.03
2023-04-09T02:13:29.508Z,22.13
2023-04-09T02:16:00.758Z,20.37
2023-04-09T02:18:29.874Z,19.27
2023-04-09T02:20:59.491Z,20.03
2023-04-09T02:23:28.210Z,20.13
2023-04-09T02:25:56.188Z,20.80
2023-04-09T02:28:24.072Z,21.47
2023-04-09T02:30:51.950Z,20.53
2023-04-09T02:33:21.168Z,20.20
2023-04-09T02:35:48.996Z,20.27
2023-04-09T02:38:16.947Z,20.67
2023-04-09T02:40:44.847Z,20.57
2023-04-09T02:43:12.651Z,19.90
2023-04-09T02:45:40.440Z,21.07
2023-04-09T02:48:08.350Z,21.13
2023-04-09T02:50:37.560Z,20.87
2023-04-09T02:53:05.440Z,22.07
2023-04-09T02:55:33.778Z,20.93
2023-04-09T02:58:01.599Z,22.13
2023-04-09T03:00:29.526Z,22.20
2023-04-09T03:02:58.066Z,19.00
2023-04-09T03:05:26.186Z,21.90
2023-04-09T03:07:56.115Z,21.87
2023-04-09T03:10:24.184Z,20.23
2023-04-09T03:12:52.194Z,21.13
2023-04-09T03:15:20.133Z,20.27
2023-04-09T03:17:47.972Z,20.57
2023-04-09T03:20:15.823Z,19.97
2023-04-09T03:22:43.709Z,19.70
2023-04-09T03:25:13.236Z,18.43
2023-04-09T03:27:41.111Z,19.47
2023-04-09T03:30:09.993Z,19.23
2023-04-09T03:32:37.825Z,19.60
2023-04-09T03:35:06.437Z,21.00
2023-04-09T03:37:34.269Z,19.67
2023-04-09T03:40:02.175Z,20.33
2023-04-09T03:42:31.341Z,19.37
2023-04-09T03:44:59.233Z,19.87
2023-04-09T03:47:27.098Z,20.47
2023-04-09T03:49:55.180Z,21.03
2023-04-09T03:52:23.166Z,20.70
2023-04-09T03:54:51.091Z,20.07
2023-04-09T03:57:18.871Z,19.87
2023-04-09T03:59:48.567Z,20.13
2023-04-09T04:02:16.398Z,19.83
2023-04-09T04:04:44.443Z,19.17
2023-04-09T04:07:14.747Z,18.93
2023-04-09T04:09:42.526Z,19.73
2023-04-09T04:12:10.700Z,17.90
2023-04-09T04:14:38.558Z,18.57
2023-04-09T04:17:07.757Z,19.10
2023-04-09T04:19:35.699Z,19.07
2023-04-09T04:22:03.673Z,19.17
2023-04-09T04:24:31.541Z,19.50
2023-04-09T04:26:59.303Z,20.37
2023-04-09T04:29:28.668Z,19.27
2023-04-09T04:31:56.513Z,19.47
2023-04-09T04:34:25.765Z,20.20
2023-04-09T04:36:53.601Z,19.80
2023-04-09T04:39:21.505Z,19.00
2023-04-09T04:41:49.750Z,20.77
2023-04-09T04:44:17.560Z,17.63
2023-04-09T04:46:45.415Z,19.73
2023-04-09T04:49:13.329Z,20.83
2023-04-09T04:51:42.566Z,20.53
2023-04-09T04:54:10.622Z,22.17
2023-04-09T04:56:38.515Z,22.57
2023-04-09T04:59:06.477Z,22.77
2023-04-09T05:01:34.425Z,20.50
2023-04-09T05:04:03.186Z,20.47
2023-04-09T05:06:31.525Z,19.97
2023-04-09T05:09:01.513Z,21.30
2023-04-09T05:11:29.516Z,21.60
2023-04-09T05:13:57.358Z,22.03
2023-04-09T05:16:25.480Z,22.17
2023-04-09T05:18:53.567Z,23.40
2023-04-09T05:21:21.763Z,23.70
2023-04-09T05:23:49.858Z,23.57
2023-04-09T05:26:18.998Z,25.30
2023-04-09T05:28:47.451Z,25.47
2023-04-09T05:31:15.682Z,26.00
2023-04-09T05:33:43.890Z,25.17
2023-04-09T05:36:17.787Z,25.60
2023-04-09T05:38:46.862Z,25.07
2023-04-09T05:41:14.914Z,27.73
2023-04-09T05:43:44.378Z,28.73
2023-04-09T05:46:12.455Z,28.93
2023-04-09T05:48:40.268Z,30.13
2023-04-09T05:51:09.557Z,28.53
2023-04-09T05:53:37.408Z,30.23
2023-04-09T05:56:14.246Z,28.20
2023-04-09T05:58:42.260Z,26.97
2023-04-09T06:01:11.594Z,27.90
2023-04-09T06:03:39.613Z,28.23
2023-04-09T06:06:08.491Z,25.57
2023-04-09T06:08:36.383Z,26.20
2023-04-09T06:11:04.426Z,26.67
2023-04-09T06:13:32.641Z,25.80
2023-04-09T06:16:00.531Z,26.27
2023-04-09T06:18:29.682Z,24.80
2023-04-09T06:21:03.384Z,24.77
2023-04-09T06:23:31.632Z,23.73
2023-04-09T06:25:59.710Z,25.33
2023-04-09T06:28:27.613Z,24.13
2023-04-09T06:30:55.836Z,22.87
2023-04-09T06:33:23.839Z,23.70
2023-04-09T06:35:53.136Z,22.67
2023-04-09T06:38:21.113Z,20.90
2023-04-09T06:40:48.986Z,20.77
2023-04-09T06:43:16.906Z,19.37
2023-04-09T06:45:45.065Z,18.33
2023-04-09T06:48:13.088Z,19.73
2023-04-09T06:50:41.038Z,18.27
2023-04-09T06:53:10.589Z,19.37
2023-04-09T06:55:38.451Z,19.73
2023-04-09T06:58:06.249Z,18.83
2023-04-09T07:00:34.072Z,19.20
2023-04-09T07:03:02.339Z,18.53
2023-04-09T07:05:31.270Z,18.13
2023-04-09T07:07:59.164Z,17.50
2023-04-09T07:10:28.407Z,17.47
2023-04-09T07:12:56.529Z,18.38
2023-04-09T07:15:24.471Z,18.43
2023-04-09T07:17:52.492Z,16.83
2023-04-09T07:20:20.706Z,18.23
2023-04-09T07:22:48.747Z,16.67
2023-04-09T07:25:17.062Z,17.03
2023-04-09T07:27:46.648Z,16.50
2023-04-09T07:30:14.907Z,17.02
2023-04-09T07:32:43.325Z,17.77
2023-04-09T07:35:12.639Z,16.27
2023-04-09T07:37:40.525Z,16.85
2023-04-09T07:40:09.741Z,16.57
2023-04-09T07:42:38.926Z,17.50
2023-04-09T07:45:09.718Z,17.35
2023-04-09T07:47:37.717Z,17.25
2023-04-09T07:50:06.686Z,16.92
2023-04-09T07:52:34.584Z,16.35
2023-04-09T07:55:02.449Z,16.02
2023-04-09T07:57:32.445Z,17.30
2023-04-09T08:00:00.366Z,17.20
2023-04-09T08:02:30.345Z,17.83
2023-04-09T08:04:58.996Z,17.38
2023-04-09T08:07:26.917Z,18.10
2023-04-09T08:09:54.827Z,19.15
2023-04-09T08:12:22.702Z,18.15
2023-04-09T08:14:50.708Z,19.05
2023-04-09T08:17:18.588Z,17.15
2023-04-09T08:19:49.469Z,17.33
2023-04-09T08:22:17.353Z,18.35
2023-04-09T08:24:45.518Z,17.60
2023-04-09T08:27:13.681Z,17.95
2023-04-09T08:29:42.693Z,16.95
2023-04-09T08:32:10.621Z,18.85
2023-04-09T08:34:38.580Z,18.42
2023-04-09T08:37:08.041Z,19.17
2023-04-09T08:39:36.283Z,18.52
2023-04-09T08:42:07.715Z,19.05
2023-04-09T08:44:35.649Z,20.10
2023-04-09T08:47:10.313Z,19.38
2023-04-09T08:49:39.878Z,18.45
2023-04-09T08:52:09.393Z,19.58
2023-04-09T08:54:37.411Z,20.45
2023-04-09T08:57:08.735Z,21.13
2023-04-09T08:59:37.811Z,21.08
2023-04-09T09:02:08.969Z,20.77
2023-04-09T09:04:47.285Z,21.67
2023-04-09T09:07:17.306Z,22.10
2023-04-09T09:09:56.303Z,20.77
2023-04-09T09:12:39.043Z,21.02
2023-04-09T09:15:26.731Z,20.92
2023-04-09T09:17:56.726Z,21.20
2023-04-09T09:20:25.436Z,22.48
2023-04-09T09:22:56.616Z,21.88
2023-04-09T09:25:26.051Z,21.52
2023-04-09T09:27:55.259Z,22.13
2023-04-09T09:30:24.218Z,22.98
2023-04-09T09:32:54.920Z,21.02
2023-04-09T09:35:23.356Z,20.83
2023-04-09T09:38:05.253Z,21.58
2023-04-09T09:40:36.560Z,20.90
2023-04-09T09:43:04.406Z,19.40
2023-04-09T09:45:34.140Z,20.35
2023-04-09T09:48:03.989Z,20.88
2023-04-09T09:50:32.863Z,20.75
2023-04-09T09:53:05.249Z,19.70
2023-04-09T09:55:34.117Z,19.38
2023-04-09T09:58:04.530Z,19.10
2023-04-09T10:00:33.331Z,19.17
2023-04-09T10:03:09.579Z,18.88
2023-04-09T10:05:39.180Z,18.02
2023-04-09T10:08:09.304Z,17.23
2023-04-09T13:10:11.802Z,9.80
2023-04-09T13:12:39.740Z,10.52
2023-04-09T13:15:08.513Z,10.90
2023-04-09T13:17:36.419Z,9.02
2023-04-09T13:20:04.580Z,10.05
2023-04-09T13:22:32.513Z,9.50
2023-04-09T13:25:00.376Z,9.90
2023-04-09T13:27:30.835Z,9.75
2023-04-09T13:29:58.759Z,9.90
2023-04-09T13:32:27.063Z,9.75
2023-04-09T13:34:55.697Z,10.25
2023-04-09T13:37:23.559Z,9.50
2023-04-09T13:39:51.608Z,10.45
2023-04-09T13:42:19.469Z,9.93
2023-04-09T13:44:48.742Z,9.90
2023-04-09T13:47:17.825Z,9.65
2023-04-09T13:49:45.794Z,9.63
2023-04-09T13:52:14.142Z,9.45
2023-04-09T13:54:42.023Z,9.90
2023-04-09T13:57:10.413Z,10.10
2023-04-09T13:59:38.952Z,9.88
2023-04-09T14:02:08.352Z,10.52
2023-04-09T14:04:36.527Z,9.90
2023-04-09T14:07:04.384Z,9.50
2023-04-09T14:09:32.256Z,9.57
2023-04-09T14:12:01.423Z,9.65
2023-04-09T14:14:29.241Z,10.15
2023-04-09T14:16:57.049Z,9.30
2023-04-09T14:19:26.241Z,9.65
2023-04-09T14:21:55.152Z,10.18
2023-04-09T14:24:23.219Z,9.40
2023-04-09T14:26:53.454Z,9.52
2023-04-09T14:29:22.606Z,9.48
2023-04-09T14:31:51.664Z,9.45
2023-04-09T14:34:19.472Z,9.57
2023-04-09T14:36:48.910Z,9.55
2023-04-09T14:39:19.225Z,10.40
2023-04-09T14:41:47.007Z,9.30
2023-04-09T14:44:15.702Z,9.52
2023-04-09T14:46:44.941Z,8.82
2023-04-09T14:49:12.813Z,10.35
2023-04-09T14:51:40.942Z,9.68
2023-04-09T14:54:10.517Z,10.23
2023-04-09T14:56:38.502Z,9.88
2023-04-09T14:59:06.360Z,9.70
2023-04-09T15:01:34.315Z,9.95
2023-04-09T15:04:02.480Z,11.13
2023-04-09T15:06:32.224Z,10.10
2023-04-09T15:09:00.134Z,10.20
2023-04-09T15:11:29.465Z,10.15
2023-04-09T15:13:57.852Z,9.75
2023-04-09T15:16:27.707Z,9.60
2023-04-09T15:18:58.422Z,9.48
2023-04-09T15:21:26.998Z,9.32
2023-04-09T15:23:54.898Z,9.32
2023-04-09T15:26:22.860Z,8.70
2023-04-09T15:28:53.585Z,8.95
2023-04-09T15:31:21.698Z,9.02
2023-04-09T15:33:50.439Z,8.45
2023-04-09T15:36:18.282Z,8.60
2023-04-09T15:38:46.143Z,8.55
2023-04-09T15:41:17.934Z,8.65
2023-04-09T15:43:45.851Z,8.52
2023-04-09T15:46:16.322Z,9.38
2023-04-09T15:48:44.306Z,8.05
2023-04-09T15:51:12.250Z,8.68
2023-04-09T15:53:40.389Z,8.50
2023-04-09T15:56:11.041Z,8.00
2023-04-09T15:58:39.974Z,9.27
2023-04-09T16:01:08.956Z,9.15
2023-04-09T16:03:39.902Z,7.53
2023-04-09T16:06:09.539Z,8.30
2023-04-09T16:08:37.980Z,7.80
2023-04-09T16:11:08.131Z,8.02
2023-04-09T16:13:36.027Z,8.45
2023-04-09T16:16:04.059Z,8.45
2023-04-09T16:18:31.926Z,8.02
2023-04-09T16:21:01.079Z,7.90
2023-04-09T16:23:30.613Z,8.35
2023-04-09T16:25:58.734Z,8.90
2023-04-09T16:28:26.954Z,8.95
2023-04-09T16:30:54.831Z,8.35
2023-04-09T16:33:22.899Z,8.23
2023-04-09T16:35:51.115Z,8.07
2023-04-09T16:38:20.354Z,8.13
2023-04-09T16:40:48.740Z,8.40
2023-04-09T16:43:16.653Z,8.70
2023-04-09T16:45:44.533Z,9.10
2023-04-09T16:48:13.360Z,8.80
2023-04-09T16:50:41.603Z,8.73
2023-04-09T16:53:09.827Z,8.68
2023-04-09T16:55:39.092Z,8.05
2023-04-09T16:58:07.056Z,8.60
2023-04-09T17:00:35.629Z,7.88
2023-04-09T17:03:03.625Z,8.40
2023-04-09T17:05:32.001Z,8.00
2023-04-09T17:07:59.989Z,9.43
2023-04-09T17:10:28.093Z,8.27
2023-04-09T17:12:57.342Z,8.60
2023-04-09T17:15:25.879Z,7.82
2023-04-09T17:17:53.933Z,7.80
2023-04-09T17:20:22.654Z,8.00
2023-04-09T17:22:50.662Z,7.75
2023-04-09T17:25:20.386Z,8.15
2023-04-09T17:27:48.665Z,7.55
2023-04-09T17:30:17.887Z,7.43
2023-04-09T17:32:45.968Z,7.32
2023-04-09T17:35:14.120Z,7.32
2023-04-09T17:37:42.016Z,7.10
2023-04-09T17:40:12.365Z,6.93
2023-04-09T17:42:40.903Z,6.28
2023-04-09T17:45:10.623Z,7.20
2023-04-09T17:47:40.672Z,7.13
2023-04-09T17:50:09.792Z,7.07
2023-04-09T17:52:38.719Z,7.13
2023-04-09T17:55:07.994Z,7.22
2023-04-09T17:57:36.479Z,6.82
2023-04-09T18:00:05.103Z,7.68
2023-04-09T18:02:33.518Z,7.03
2023-04-09T18:05:04.402Z,6.90
2023-04-09T18:07:34.117Z,6.43
2023-04-09T18:10:02.494Z,6.50
2023-04-09T18:12:30.542Z,6.95
2023-04-09T18:14:58.478Z,6.15
2023-04-09T18:17:27.101Z,7.53
2023-04-09T18:19:58.131Z,6.25
2023-04-09T18:22:27.868Z,6.32
2023-04-09T18:24:56.506Z,6.32
2023-04-09T18:27:24.421Z,6.20
2023-04-09T18:29:52.354Z,7.07
2023-04-09T18:32:20.353Z,6.85
2023-04-09T18:34:48.890Z,6.35
2023-04-09T18:37:17.195Z,6.70
2023-04-09T18:39:46.917Z,6.35
2023-04-09T18:42:15.403Z,6.75
2023-04-09T18:44:44.052Z,6.47
2023-04-09T18:47:12.708Z,6.20
2023-04-09T18:49:40.617Z,7.00
2023-04-09T18:52:09.497Z,7.35
2023-04-09T18:54:38.814Z,7.80
2023-04-09T18:57:08.662Z,8.57
2023-04-09T18:59:36.520Z,7.97
2023-04-09T19:02:04.929Z,8.05
2023-04-09T19:04:36.288Z,9.00
2023-04-09T19:07:04.638Z,8.45
2023-04-09T19:09:33.475Z,7.68
2023-04-09T19:12:01.668Z,7.65
2023-04-09T19:14:30.937Z,7.43
2023-04-09T19:16:59.605Z,7.85
2023-04-09T19:19:28.955Z,7.30
2023-04-09T19:21:57.337Z,8.32
2023-04-09T19:24:25.334Z,9.43
2023-04-09T19:26:53.449Z,10.02
2023-04-09T19:29:21.522Z,9.50
2023-04-09T19:31:50.994Z,8.77
2023-04-09T19:34:18.856Z,9.75
2023-04-09T19:36:46.700Z,9.35
2023-04-09T19:39:15.406Z,8.75
2023-04-09T19:41:43.239Z,7.32
2023-04-09T19:44:11.356Z,8.40
2023-04-09T19:46:39.192Z,7.72
2023-04-09T19:49:08.513Z,7.13
2023-04-09T19:51:36.393Z,8.13
2023-04-09T19:54:04.363Z,8.32
2023-04-09T19:56:32.847Z,9.25
2023-04-09T19:59:00.707Z,8.55
2023-04-09T20:01:28.888Z,8.40
2023-04-09T20:03:57.382Z,7.70
2023-04-09T20:06:27.114Z,8.13
2023-04-09T20:08:55.869Z,8.15
2023-04-09T20:11:23.849Z,8.30
2023-04-09T20:13:51.900Z,8.02
2023-04-09T20:16:19.913Z,9.43
2023-04-09T20:18:47.917Z,9.30
2023-04-09T20:21:15.819Z,9.35
2023-04-09T20:23:46.135Z,9.32
2023-04-09T20:26:14.367Z,9.15
2023-04-09T20:28:42.325Z,9.43
2023-04-09T20:31:10.435Z,8.90
2023-04-09T20:33:38.264Z,9.18
2023-04-09T20:36:14.949Z,9.25
2023-04-09T20:38:44.608Z,9.15
2023-04-09T20:41:12.790Z,10.07
2023-04-09T20:43:40.773Z,10.43
2023-04-09T20:46:08.715Z,9.40
2023-04-09T20:48:36.640Z,10.52
2023-04-09T20:51:10.467Z,10.55
2023-04-09T20:53:38.846Z,10.27
2023-04-09T20:56:09.405Z,10.35
2023-04-09T20:58:37.368Z,10.43
2023-04-09T21:01:07.306Z,10.80
2023-04-09T21:03:35.828Z,12.37
2023-04-09T21:06:04.401Z,11.23
2023-04-09T21:08:32.462Z,11.07
2023-04-09T21:11:00.481Z,9.60
2023-04-09T21:13:30.931Z,11.03
2023-04-09T21:16:01.498Z,11.93
2023-04-09T21:18:29.344Z,11.60
2023-04-09T21:20:57.171Z,11.50
2023-04-09T21:23:25.434Z,11.03
2023-04-09T21:25:53.301Z,11.17
2023-04-09T21:28:22.350Z,11.07
2023-04-09T21:30:51.859Z,11.70
2023-04-09T21:33:19.720Z,11.40
2023-04-09T21:35:47.659Z,12.00
2023-04-09T21:38:15.580Z,11.03
2023-04-09T21:40:44.572Z,12.30
2023-04-09T21:43:13.116Z,11.30
2023-04-09T21:45:41.112Z,12.10
2023-04-09T21:48:10.620Z,11.30
2023-04-09T21:50:38.436Z,11.70
2023-04-09T21:53:06.452Z,11.73
2023-04-09T21:55:36.539Z,11.47
2023-04-09T21:58:50.761Z,11.93
2023-04-09T22:01:26.526Z,11.97
2023-04-09T22:03:59.610Z,12.97
2023-04-09T22:06:28.833Z,13.17
2023-04-09T22:08:58.161Z,14.43
2023-04-09T22:11:28.273Z,15.20
2023-04-09T22:13:56.715Z,13.97
2023-04-09T22:16:25.223Z,13.77
2023-04-09T22:18:58.852Z,14.30
2023-04-09T22:21:28.525Z,13.80
2023-04-09T22:23:56.587Z,14.70
2023-04-09T22:26:24.803Z,13.37
2023-04-09T22:28:53.147Z,11.93
2023-04-09T22:31:21.526Z,13.20
2023-04-09T22:33:49.727Z,13.67
2023-04-09T22:36:17.564Z,13.33
2023-04-09T22:38:46.881Z,12.23
2023-04-09T22:41:15.917Z,12.10
2023-04-09T22:43:43.953Z,12.23
2023-04-09T22:46:12.086Z,12.63
2023-04-09T22:48:44.485Z,12.37
2023-04-09T22:51:12.976Z,12.07
2023-04-09T22:53:41.102Z,11.97
2023-04-09T22:56:10.834Z,11.60
2023-04-09T22:58:39.272Z,12.53
2023-04-09T23:01:07.796Z,11.53
2023-04-09T23:03:35.801Z,10.90
2023-04-09T23:06:03.690Z,11.17
2023-04-09T23:08:31.609Z,11.33
2023-04-09T23:10:59.501Z,10.70
2023-04-09T23:13:28.731Z,11.87
2023-04-09T23:15:56.630Z,10.83
2023-04-09T23:18:24.522Z,11.50
2023-04-09T23:20:52.372Z,10.13
2023-04-09T23:23:20.178Z,9.93
2023-04-09T23:25:47.945Z,9.70
2023-04-09T23:28:15.888Z,10.30
2023-04-09T23:30:45.314Z,10.13
2023-04-09T23:33:13.201Z,11.07
2023-04-09T23:35:41.249Z,10.80
2023-04-09T23:38:09.543Z,11.10
2023-04-09T23:40:37.447Z,10.10
2023-04-09T23:43:05.361Z,9.93
2023-04-09T23:45:33.162Z,8.97
2023-04-09T23:48:03.274Z,8.50
2023-04-09T23:50:31.245Z,8.03
2023-04-09T23:53:00.943Z,9.13
2023-04-09T23:55:28.797Z,8.70
2023-04-09T23:57:56.772Z,7.77
